sensor_id;sensor_type;location;lat;lon;timestamp;P1;durP1;ratioP1;P2;durP2;ratioP2
6671;SDS011;3372;48.690;12.362;2022-09-01T00:01:03;16.60;;;14.27;;
6671;SDS011;3372;48.690;12.362;2022-09-01T00:03:48;21.33;;;17.03;;
6671;SDS011;3372;48.690;12.362;2022-09-01T00:06:17;19.97;;;15.83;;
6671;SDS011;3372;48.690;12.362;2022-09-01T00:08:51;20.50;;;16.53;;
6671;SDS011;3372;48.690;12.362;2022-09-01T00:11:18;18.80;;;14.90;;
6671;SDS011;3372;48.690;12.362;2022-09-01T00:13:45;18.80;;;14.70;;
6671;SDS011;3372;48.690;12.362;2022-09-01T00:16:12;18.27;;;14.23;;
6671;SDS011;3372;48.690;12.362;2022-09-01T00:18:41;18.97;;;14.00;;
6671;SDS011;3372;48.690;12.362;2022-09-01T00:21:14;20.80;;;16.40;;
6671;SDS011;3372;48.690;12.362;2022-09-01T00:23:42;20.80;;;16.17;;
6671;SDS011;3372;48.690;12.362;2022-09-01T00:26:07;21.30;;;16.50;;
6671;SDS011;3372;48.690;12.362;2022-09-01T00:28:33;19.80;;;15.90;;
6671;SDS011;3372;48.690;12.362;2022-09-01T00:31:01;19.73;;;16.10;;
6671;SDS011;3372;48.690;12.362;2022-09-01T00:33:27;18.67;;;15.40;;
6671;SDS011;3372;48.690;12.362;2022-09-01T00:35:53;19.93;;;14.97;;
6671;SDS011;3372;48.690;12.362;2022-09-01T00:38:18;21.57;;;17.33;;
6671;SDS011;3372;48.690;12.362;2022-09-01T00:40:44;22.30;;;17.30;;
6671;SDS011;3372;48.690;12.362;2022-09-01T00:43:11;18.70;;;16.23;;
6671;SDS011;3372;48.690;12.362;2022-09-01T00:46:01;25.60;;;17.47;;
6671;SDS011;3372;48.690;12.362;2022-09-01T00:48:30;20.97;;;16.70;;
6671;SDS011;3372;48.690;12.362;2022-09-01T00:50:56;20.00;;;16.83;;
6671;SDS011;3372;48.690;12.362;2022-09-01T00:53:22;16.93;;;14.30;;
6671;SDS011;3372;48.690;12.362;2022-09-01T00:55:48;18.60;;;16.43;;
6671;SDS011;3372;48.690;12.362;2022-09-01T00:58:14;20.77;;;16.90;;
6671;SDS011;3372;48.690;12.362;2022-09-01T01:00:40;17.87;;;15.33;;
6671;SDS011;3372;48.690;12.362;2022-09-01T01:03:06;20.97;;;16.20;;
6671;SDS011;3372;48.690;12.362;2022-09-01T01:05:35;16.97;;;15.17;;
6671;SDS011;3372;48.690;12.362;2022-09-01T01:08:04;20.60;;;14.70;;
6671;SDS011;3372;48.690;12.362;2022-09-01T01:10:32;18.23;;;15.20;;
6671;SDS011;3372;48.690;12.362;2022-09-01T01:13:08;22.07;;;17.37;;
6671;SDS011;3372;48.690;12.362;2022-09-01T01:15:39;21.53;;;15.43;;
6671;SDS011;3372;48.690;12.362;2022-09-01T01:18:11;17.70;;;15.67;;
6671;SDS011;3372;48.690;12.362;2022-09-01T01:20:38;20.67;;;17.27;;
6671;SDS011;3372;48.690;12.362;2022-09-01T01:26:14;21.70;;;18.00;;
6671;SDS011;3372;48.690;12.362;2022-09-01T01:28:41;24.70;;;16.73;;
6671;SDS011;3372;48.690;12.362;2022-09-01T01:31:12;17.90;;;15.30;;
6671;SDS011;3372;48.690;12.362;2022-09-01T01:33:46;21.40;;;18.17;;
6671;SDS011;3372;48.690;12.362;2022-09-01T01:36:26;20.73;;;16.93;;
6671;SDS011;3372;48.690;12.362;2022-09-01T01:39:03;24.23;;;17.17;;
6671;SDS011;3372;48.690;12.362;2022-09-01T01:41:34;19.10;;;16.10;;
6671;SDS011;3372;48.690;12.362;2022-09-01T01:44:05;21.23;;;16.50;;
6671;SDS011;3372;48.690;12.362;2022-09-01T01:46:31;19.40;;;15.90;;
6671;SDS011;3372;48.690;12.362;2022-09-01T01:48:58;17.70;;;15.13;;
6671;SDS011;3372;48.690;12.362;2022-09-01T01:51:27;20.57;;;17.20;;
6671;SDS011;3372;48.690;12.362;2022-09-01T01:53:55;18.10;;;15.20;;
6671;SDS011;3372;48.690;12.362;2022-09-01T01:56:21;20.87;;;15.37;;
6671;SDS011;3372;48.690;12.362;2022-09-01T01:58:54;17.10;;;15.30;;
6671;SDS011;3372;48.690;12.362;2022-09-01T02:01:22;18.70;;;16.00;;
6671;SDS011;3372;48.690;12.362;2022-09-01T02:03:49;17.83;;;15.70;;
6671;SDS011;3372;48.690;12.362;2022-09-01T02:06:19;18.20;;;15.20;;
6671;SDS011;3372;48.690;12.362;2022-09-01T02:08:50;21.57;;;17.20;;
6671;SDS011;3372;48.690;12.362;2022-09-01T02:11:17;19.20;;;14.83;;
6671;SDS011;3372;48.690;12.362;2022-09-01T02:13:43;19.03;;;16.10;;
6671;SDS011;3372;48.690;12.362;2022-09-01T02:16:10;19.13;;;16.40;;
6671;SDS011;3372;48.690;12.362;2022-09-01T02:18:43;22.47;;;18.40;;
6671;SDS011;3372;48.690;12.362;2022-09-01T02:21:14;21.43;;;17.27;;
6671;SDS011;3372;48.690;12.362;2022-09-01T02:23:44;20.47;;;15.27;;
6671;SDS011;3372;48.690;12.362;2022-09-01T02:26:12;19.77;;;16.73;;
6671;SDS011;3372;48.690;12.362;2022-09-01T02:28:38;19.60;;;15.20;;
6671;SDS011;3372;48.690;12.362;2022-09-01T02:31:07;22.57;;;15.77;;
6671;SDS011;3372;48.690;12.362;2022-09-01T02:33:34;19.13;;;15.90;;
6671;SDS011;3372;48.690;12.362;2022-09-01T02:36:04;17.73;;;15.83;;
6671;SDS011;3372;48.690;12.362;2022-09-01T02:38:32;18.50;;;15.50;;
6671;SDS011;3372;48.690;12.362;2022-09-01T02:40:58;20.47;;;16.10;;
6671;SDS011;3372;48.690;12.362;2022-09-01T02:43:26;21.30;;;16.67;;
6671;SDS011;3372;48.690;12.362;2022-09-01T02:45:54;21.00;;;15.20;;
6671;SDS011;3372;48.690;12.362;2022-09-01T02:48:24;22.17;;;16.87;;
6671;SDS011;3372;48.690;12.362;2022-09-01T02:51:00;18.90;;;15.03;;
6671;SDS011;3372;48.690;12.362;2022-09-01T02:53:27;18.27;;;15.00;;
6671;SDS011;3372;48.690;12.362;2022-09-01T02:55:54;19.47;;;15.53;;
6671;SDS011;3372;48.690;12.362;2022-09-01T02:58:22;18.73;;;15.33;;
6671;SDS011;3372;48.690;12.362;2022-09-01T03:00:53;28.40;;;18.20;;
6671;SDS011;3372;48.690;12.362;2022-09-01T03:03:20;18.70;;;14.63;;
6671;SDS011;3372;48.690;12.362;2022-09-01T03:05:47;19.30;;;14.90;;
6671;SDS011;3372;48.690;12.362;2022-09-01T03:08:20;17.67;;;13.37;;
6671;SDS011;3372;48.690;12.362;2022-09-01T03:10:48;18.73;;;14.83;;
6671;SDS011;3372;48.690;12.362;2022-09-01T03:13:17;19.50;;;15.10;;
6671;SDS011;3372;48.690;12.362;2022-09-01T03:15:46;17.70;;;14.23;;
6671;SDS011;3372;48.690;12.362;2022-09-01T03:18:12;15.50;;;12.57;;
6671;SDS011;3372;48.690;12.362;2022-09-01T03:20:40;19.13;;;14.70;;
6671;SDS011;3372;48.690;12.362;2022-09-01T03:23:11;14.40;;;12.80;;
6671;SDS011;3372;48.690;12.362;2022-09-01T03:25:39;17.20;;;13.73;;
6671;SDS011;3372;48.690;12.362;2022-09-01T03:28:06;16.80;;;12.73;;
6671;SDS011;3372;48.690;12.362;2022-09-01T03:30:32;15.83;;;13.27;;
6671;SDS011;3372;48.690;12.362;2022-09-01T03:33:01;14.53;;;12.50;;
6671;SDS011;3372;48.690;12.362;2022-09-01T03:35:27;15.33;;;12.20;;
6671;SDS011;3372;48.690;12.362;2022-09-01T03:37:56;15.93;;;12.73;;
6671;SDS011;3372;48.690;12.362;2022-09-01T03:40:24;15.03;;;12.23;;
6671;SDS011;3372;48.690;12.362;2022-09-01T03:42:52;15.37;;;13.10;;
6671;SDS011;3372;48.690;12.362;2022-09-01T03:45:19;17.10;;;13.27;;
6671;SDS011;3372;48.690;12.362;2022-09-01T03:47:45;18.33;;;14.60;;
6671;SDS011;3372;48.690;12.362;2022-09-01T03:50:13;16.50;;;14.30;;
6671;SDS011;3372;48.690;12.362;2022-09-01T03:52:47;17.60;;;13.90;;
6671;SDS011;3372;48.690;12.362;2022-09-01T03:55:15;14.73;;;11.07;;
6671;SDS011;3372;48.690;12.362;2022-09-01T03:57:50;13.03;;;11.67;;
6671;SDS011;3372;48.690;12.362;2022-09-01T04:00:18;18.83;;;13.57;;
6671;SDS011;3372;48.690;12.362;2022-09-01T04:02:48;15.67;;;13.47;;
6671;SDS011;3372;48.690;12.362;2022-09-01T04:05:15;17.40;;;14.10;;
6671;SDS011;3372;48.690;12.362;2022-09-01T04:07:44;15.63;;;12.90;;
6671;SDS011;3372;48.690;12.362;2022-09-01T04:10:11;14.20;;;10.97;;
6671;SDS011;3372;48.690;12.362;2022-09-01T04:12:36;13.40;;;11.13;;
6671;SDS011;3372;48.690;12.362;2022-09-01T04:15:03;14.03;;;11.50;;
6671;SDS011;3372;48.690;12.362;2022-09-01T04:17:29;13.87;;;12.37;;
6671;SDS011;3372;48.690;12.362;2022-09-01T04:20:14;15.47;;;13.37;;
6671;SDS011;3372;48.690;12.362;2022-09-01T04:22:44;15.87;;;13.20;;
6671;SDS011;3372;48.690;12.362;2022-09-01T04:25:11;14.17;;;12.23;;
6671;SDS011;3372;48.690;12.362;2022-09-01T04:27:38;15.30;;;12.77;;
6671;SDS011;3372;48.690;12.362;2022-09-01T04:30:04;19.10;;;13.60;;
6671;SDS011;3372;48.690;12.362;2022-09-01T04:32:34;15.83;;;12.43;;
6671;SDS011;3372;48.690;12.362;2022-09-01T04:35:04;16.07;;;13.17;;
6671;SDS011;3372;48.690;12.362;2022-09-01T04:37:31;16.00;;;13.00;;
6671;SDS011;3372;48.690;12.362;2022-09-01T04:40:00;14.57;;;12.73;;
6671;SDS011;3372;48.690;12.362;2022-09-01T04:42:28;15.30;;;13.07;;
6671;SDS011;3372;48.690;12.362;2022-09-01T04:44:56;15.23;;;12.30;;
6671;SDS011;3372;48.690;12.362;2022-09-01T04:47:24;15.47;;;13.77;;
6671;SDS011;3372;48.690;12.362;2022-09-01T04:49:56;14.40;;;12.20;;
6671;SDS011;3372;48.690;12.362;2022-09-01T04:52:24;17.53;;;13.00;;
6671;SDS011;3372;48.690;12.362;2022-09-01T04:54:50;15.40;;;12.50;;
6671;SDS011;3372;48.690;12.362;2022-09-01T04:57:16;15.67;;;13.23;;
6671;SDS011;3372;48.690;12.362;2022-09-01T04:59:41;16.30;;;12.73;;
6671;SDS011;3372;48.690;12.362;2022-09-01T05:02:08;14.77;;;12.00;;
6671;SDS011;3372;48.690;12.362;2022-09-01T05:04:34;13.80;;;11.57;;
6671;SDS011;3372;48.690;12.362;2022-09-01T05:07:00;16.77;;;13.50;;
6671;SDS011;3372;48.690;12.362;2022-09-01T05:09:28;15.40;;;12.80;;
6671;SDS011;3372;48.690;12.362;2022-09-01T05:11:56;16.57;;;13.37;;
6671;SDS011;3372;48.690;12.362;2022-09-01T05:14:22;16.20;;;12.73;;
6671;SDS011;3372;48.690;12.362;2022-09-01T05:16:50;16.00;;;12.47;;
6671;SDS011;3372;48.690;12.362;2022-09-01T05:19:20;13.53;;;10.73;;
6671;SDS011;3372;48.690;12.362;2022-09-01T05:21:48;15.43;;;11.87;;
6671;SDS011;3372;48.690;12.362;2022-09-01T05:24:16;14.10;;;12.10;;
6671;SDS011;3372;48.690;12.362;2022-09-01T05:26:45;14.93;;;12.87;;
6671;SDS011;3372;48.690;12.362;2022-09-01T05:29:13;13.63;;;11.43;;
6671;SDS011;3372;48.690;12.362;2022-09-01T05:31:42;16.30;;;11.73;;
6671;SDS011;3372;48.690;12.362;2022-09-01T05:34:10;21.27;;;15.80;;
6671;SDS011;3372;48.690;12.362;2022-09-01T05:36:40;15.03;;;13.07;;
6671;SDS011;3372;48.690;12.362;2022-09-01T05:39:07;16.57;;;13.60;;
6671;SDS011;3372;48.690;12.362;2022-09-01T05:41:35;15.97;;;12.30;;
6671;SDS011;3372;48.690;12.362;2022-09-01T05:44:01;14.73;;;11.90;;
6671;SDS011;3372;48.690;12.362;2022-09-01T05:46:31;16.67;;;13.30;;
6671;SDS011;3372;48.690;12.362;2022-09-01T05:48:58;15.17;;;12.70;;
6671;SDS011;3372;48.690;12.362;2022-09-01T05:51:25;15.87;;;12.70;;
6671;SDS011;3372;48.690;12.362;2022-09-01T05:53:52;14.10;;;12.57;;
6671;SDS011;3372;48.690;12.362;2022-09-01T05:56:20;15.90;;;12.00;;
6671;SDS011;3372;48.690;12.362;2022-09-01T05:58:47;11.73;;;10.40;;
6671;SDS011;3372;48.690;12.362;2022-09-01T06:01:15;15.47;;;11.77;;
6671;SDS011;3372;48.690;12.362;2022-09-01T06:03:46;13.50;;;11.37;;
6671;SDS011;3372;48.690;12.362;2022-09-01T06:06:20;13.57;;;10.47;;
6671;SDS011;3372;48.690;12.362;2022-09-01T06:08:47;12.53;;;11.10;;
6671;SDS011;3372;48.690;12.362;2022-09-01T06:11:14;11.43;;;10.23;;
6671;SDS011;3372;48.690;12.362;2022-09-01T06:13:41;16.53;;;13.93;;
6671;SDS011;3372;48.690;12.362;2022-09-01T06:16:12;13.30;;;11.90;;
6671;SDS011;3372;48.690;12.362;2022-09-01T06:18:39;12.93;;;11.20;;
6671;SDS011;3372;48.690;12.362;2022-09-01T06:21:07;13.83;;;11.43;;
6671;SDS011;3372;48.690;12.362;2022-09-01T06:23:38;12.80;;;10.30;;
6671;SDS011;3372;48.690;12.362;2022-09-01T06:26:18;12.83;;;11.00;;
6671;SDS011;3372;48.690;12.362;2022-09-01T06:28:45;12.27;;;10.50;;
6671;SDS011;3372;48.690;12.362;2022-09-01T06:31:12;11.20;;;10.00;;
6671;SDS011;3372;48.690;12.362;2022-09-01T06:33:39;12.50;;;10.30;;
6671;SDS011;3372;48.690;12.362;2022-09-01T06:36:04;11.60;;;10.40;;
6671;SDS011;3372;48.690;12.362;2022-09-01T06:38:32;10.90;;;9.70;;
6671;SDS011;3372;48.690;12.362;2022-09-01T06:40:59;11.60;;;9.93;;
6671;SDS011;3372;48.690;12.362;2022-09-01T06:43:26;12.20;;;10.43;;
6671;SDS011;3372;48.690;12.362;2022-09-01T06:45:54;15.20;;;11.10;;
6671;SDS011;3372;48.690;12.362;2022-09-01T06:48:20;13.73;;;11.27;;
6671;SDS011;3372;48.690;12.362;2022-09-01T06:50:47;10.70;;;8.90;;
6671;SDS011;3372;48.690;12.362;2022-09-01T06:53:13;10.97;;;9.80;;
6671;SDS011;3372;48.690;12.362;2022-09-01T06:55:43;12.83;;;10.63;;
6671;SDS011;3372;48.690;12.362;2022-09-01T06:58:12;12.50;;;10.30;;
6671;SDS011;3372;48.690;12.362;2022-09-01T07:00:40;11.70;;;9.40;;
6671;SDS011;3372;48.690;12.362;2022-09-01T07:03:07;10.50;;;9.40;;
6671;SDS011;3372;48.690;12.362;2022-09-01T07:05:38;8.77;;;7.87;;
6671;SDS011;3372;48.690;12.362;2022-09-01T07:08:06;8.70;;;7.80;;
6671;SDS011;3372;48.690;12.362;2022-09-01T07:10:37;8.70;;;7.37;;
6671;SDS011;3372;48.690;12.362;2022-09-01T07:13:07;8.53;;;7.57;;
6671;SDS011;3372;48.690;12.362;2022-09-01T07:15:37;8.10;;;7.27;;
6671;SDS011;3372;48.690;12.362;2022-09-01T07:18:07;8.53;;;7.40;;
6671;SDS011;3372;48.690;12.362;2022-09-01T07:20:34;10.90;;;7.57;;
6671;SDS011;3372;48.690;12.362;2022-09-01T07:23:03;8.47;;;7.50;;
6671;SDS011;3372;48.690;12.362;2022-09-01T07:25:30;11.20;;;7.53;;
6671;SDS011;3372;48.690;12.362;2022-09-01T07:28:03;10.10;;;7.80;;
6671;SDS011;3372;48.690;12.362;2022-09-01T07:30:29;8.77;;;7.37;;
6671;SDS011;3372;48.690;12.362;2022-09-01T07:32:55;8.70;;;7.60;;
6671;SDS011;3372;48.690;12.362;2022-09-01T07:35:21;8.20;;;7.30;;
6671;SDS011;3372;48.690;12.362;2022-09-01T07:37:47;8.60;;;7.77;;
6671;SDS011;3372;48.690;12.362;2022-09-01T07:40:14;7.90;;;7.10;;
6671;SDS011;3372;48.690;12.362;2022-09-01T07:42:44;7.87;;;7.07;;
6671;SDS011;3372;48.690;12.362;2022-09-01T07:45:12;8.10;;;7.30;;
6671;SDS011;3372;48.690;12.362;2022-09-01T07:47:41;8.77;;;7.87;;
6671;SDS011;3372;48.690;12.362;2022-09-01T07:50:09;9.50;;;8.20;;
6671;SDS011;3372;48.690;12.362;2022-09-01T07:52:37;8.03;;;6.90;;
6671;SDS011;3372;48.690;12.362;2022-09-01T07:55:06;8.40;;;7.50;;
6671;SDS011;3372;48.690;12.362;2022-09-01T07:57:37;7.57;;;6.77;;
6671;SDS011;3372;48.690;12.362;2022-09-01T08:00:06;8.13;;;6.97;;
6671;SDS011;3372;48.690;12.362;2022-09-01T08:02:33;9.60;;;7.77;;
6671;SDS011;3372;48.690;12.362;2022-09-01T08:05:00;8.43;;;7.53;;
6671;SDS011;3372;48.690;12.362;2022-09-01T08:07:26;9.10;;;7.20;;
6671;SDS011;3372;48.690;12.362;2022-09-01T08:09:51;8.23;;;6.90;;
6671;SDS011;3372;48.690;12.362;2022-09-01T08:12:17;6.93;;;6.33;;
6671;SDS011;3372;48.690;12.362;2022-09-01T08:14:42;7.33;;;6.63;;
6671;SDS011;3372;48.690;12.362;2022-09-01T08:17:09;6.90;;;6.20;;
6671;SDS011;3372;48.690;12.362;2022-09-01T08:19:35;7.20;;;6.50;;
6671;SDS011;3372;48.690;12.362;2022-09-01T08:22:01;8.43;;;6.40;;
6671;SDS011;3372;48.690;12.362;2022-09-01T08:24:26;7.70;;;5.40;;
6671;SDS011;3372;48.690;12.362;2022-09-01T08:26:52;6.70;;;6.10;;
6671;SDS011;3372;48.690;12.362;2022-09-01T08:29:17;6.20;;;5.60;;
6671;SDS011;3372;48.690;12.362;2022-09-01T08:31:45;6.93;;;6.07;;
6671;SDS011;3372;48.690;12.362;2022-09-01T08:34:11;6.63;;;6.00;;
6671;SDS011;3372;48.690;12.362;2022-09-01T08:36:36;7.20;;;6.50;;
6671;SDS011;3372;48.690;12.362;2022-09-01T08:39:02;8.60;;;6.13;;
6671;SDS011;3372;48.690;12.362;2022-09-01T08:47:21;6.30;;;5.70;;
6671;SDS011;3372;48.690;12.362;2022-09-01T08:49:47;11.23;;;5.37;;
6671;SDS011;3372;48.690;12.362;2022-09-01T08:55:20;5.43;;;4.93;;
6671;SDS011;3372;48.690;12.362;2022-09-01T08:57:51;5.00;;;4.53;;
6671;SDS011;3372;48.690;12.362;2022-09-01T09:00:20;8.07;;;4.40;;
6671;SDS011;3372;48.690;12.362;2022-09-01T09:06:37;4.40;;;3.73;;
6671;SDS011;3372;48.690;12.362;2022-09-01T09:08:57;4.83;;;4.27;;
6671;SDS011;3372;48.690;12.362;2022-09-01T09:17:01;4.97;;;4.47;;
6671;SDS011;3372;48.690;12.362;2022-09-01T09:19:35;5.37;;;4.83;;
6671;SDS011;3372;48.690;12.362;2022-09-01T09:22:05;5.53;;;4.97;;
6671;SDS011;3372;48.690;12.362;2022-09-01T09:27:21;4.90;;;4.40;;
6671;SDS011;3372;48.690;12.362;2022-09-01T09:29:53;5.80;;;5.07;;
6671;SDS011;3372;48.690;12.362;2022-09-01T09:32:21;5.30;;;4.80;;
6671;SDS011;3372;48.690;12.362;2022-09-01T09:34:48;5.37;;;4.30;;
6671;SDS011;3372;48.690;12.362;2022-09-01T09:37:23;4.67;;;4.13;;
6671;SDS011;3372;48.690;12.362;2022-09-01T09:42:35;5.90;;;4.33;;
6671;SDS011;3372;48.690;12.362;2022-09-01T09:45:03;4.80;;;3.90;;
6671;SDS011;3372;48.690;12.362;2022-09-01T09:47:43;3.70;;;3.40;;
6671;SDS011;3372;48.690;12.362;2022-09-01T09:52:42;3.97;;;3.57;;
6671;SDS011;3372;48.690;12.362;2022-09-01T09:55:19;4.37;;;3.73;;
6671;SDS011;3372;48.690;12.362;2022-09-01T09:57:47;4.43;;;3.80;;
6671;SDS011;3372;48.690;12.362;2022-09-01T10:00:22;5.20;;;3.93;;
6671;SDS011;3372;48.690;12.362;2022-09-01T10:02:51;5.37;;;3.80;;
6671;SDS011;3372;48.690;12.362;2022-09-01T10:10:58;4.60;;;4.10;;
6671;SDS011;3372;48.690;12.362;2022-09-01T10:13:24;9.73;;;4.47;;
6671;SDS011;3372;48.690;12.362;2022-09-01T10:15:55;5.10;;;4.60;;
6671;SDS011;3372;48.690;12.362;2022-09-01T10:18:24;4.27;;;3.87;;
6671;SDS011;3372;48.690;12.362;2022-09-01T10:20:57;4.40;;;4.00;;
6671;SDS011;3372;48.690;12.362;2022-09-01T10:23:29;4.83;;;4.40;;
6671;SDS011;3372;48.690;12.362;2022-09-01T10:25:59;5.07;;;4.37;;
6671;SDS011;3372;48.690;12.362;2022-09-01T10:28:51;6.13;;;4.27;;
6671;SDS011;3372;48.690;12.362;2022-09-01T10:31:18;4.93;;;4.43;;
6671;SDS011;3372;48.690;12.362;2022-09-01T10:33:46;4.60;;;4.00;;
6671;SDS011;3372;48.690;12.362;2022-09-01T10:36:12;4.93;;;4.03;;
6671;SDS011;3372;48.690;12.362;2022-09-01T10:38:40;4.80;;;4.40;;
6671;SDS011;3372;48.690;12.362;2022-09-01T10:41:07;4.50;;;4.10;;
6671;SDS011;3372;48.690;12.362;2022-09-01T10:43:37;4.40;;;4.00;;
6671;SDS011;3372;48.690;12.362;2022-09-01T10:46:09;4.97;;;4.10;;
6671;SDS011;3372;48.690;12.362;2022-09-01T10:48:45;4.60;;;4.03;;
6671;SDS011;3372;48.690;12.362;2022-09-01T10:53:51;4.13;;;3.30;;
6671;SDS011;3372;48.690;12.362;2022-09-01T10:56:38;3.67;;;3.37;;
6671;SDS011;3372;48.690;12.362;2022-09-01T11:04:09;3.40;;;3.00;;
6671;SDS011;3372;48.690;12.362;2022-09-01T11:07:17;5.13;;;2.90;;
6671;SDS011;3372;48.690;12.362;2022-09-01T11:10:11;3.10;;;2.80;;
6671;SDS011;3372;48.690;12.362;2022-09-01T11:23:03;3.87;;;3.00;;
6671;SDS011;3372;48.690;12.362;2022-09-01T11:35:48;3.60;;;3.30;;
6671;SDS011;3372;48.690;12.362;2022-09-01T11:38:26;6.50;;;3.10;;
6671;SDS011;3372;48.690;12.362;2022-09-01T11:40:55;3.17;;;2.87;;
6671;SDS011;3372;48.690;12.362;2022-09-01T11:43:21;3.30;;;3.00;;
6671;SDS011;3372;48.690;12.362;2022-09-01T11:48:21;4.80;;;2.77;;
6671;SDS011;3372;48.690;12.362;2022-09-01T11:50:56;3.77;;;3.03;;
6671;SDS011;3372;48.690;12.362;2022-09-01T11:53:23;3.40;;;2.67;;
6671;SDS011;3372;48.690;12.362;2022-09-01T11:55:52;3.20;;;2.60;;
6671;SDS011;3372;48.690;12.362;2022-09-01T12:00:52;2.80;;;2.50;;
6671;SDS011;3372;48.690;12.362;2022-09-01T12:03:25;3.30;;;2.63;;
6671;SDS011;3372;48.690;12.362;2022-09-01T12:06:00;3.50;;;2.87;;
6671;SDS011;3372;48.690;12.362;2022-09-01T12:08:29;2.90;;;2.50;;
6671;SDS011;3372;48.690;12.362;2022-09-01T12:11:05;3.60;;;2.43;;
6671;SDS011;3372;48.690;12.362;2022-09-01T12:13:34;4.00;;;2.60;;
6671;SDS011;3372;48.690;12.362;2022-09-01T12:16:02;2.50;;;2.20;;
6671;SDS011;3372;48.690;12.362;2022-09-01T12:18:34;3.07;;;2.23;;
6671;SDS011;3372;48.690;12.362;2022-09-01T12:21:05;2.97;;;2.60;;
6671;SDS011;3372;48.690;12.362;2022-09-01T12:23:37;3.93;;;2.63;;
6671;SDS011;3372;48.690;12.362;2022-09-01T12:26:09;2.70;;;2.30;;
6671;SDS011;3372;48.690;12.362;2022-09-01T12:28:40;3.70;;;2.70;;
6671;SDS011;3372;48.690;12.362;2022-09-01T12:31:11;2.50;;;2.20;;
6671;SDS011;3372;48.690;12.362;2022-09-01T12:33:41;2.10;;;1.90;;
6671;SDS011;3372;48.690;12.362;2022-09-01T12:38:52;3.20;;;2.17;;
6671;SDS011;3372;48.690;12.362;2022-09-01T12:41:23;2.50;;;1.93;;
6671;SDS011;3372;48.690;12.362;2022-09-01T12:46:55;3.33;;;2.40;;
6671;SDS011;3372;48.690;12.362;2022-09-01T12:49:23;2.97;;;2.67;;
6671;SDS011;3372;48.690;12.362;2022-09-01T12:54:43;2.60;;;2.20;;
6671;SDS011;3372;48.690;12.362;2022-09-01T12:57:10;3.60;;;2.30;;
6671;SDS011;3372;48.690;12.362;2022-09-01T13:00:14;2.40;;;2.20;;
6671;SDS011;3372;48.690;12.362;2022-09-01T13:02:41;2.70;;;2.27;;
6671;SDS011;3372;48.690;12.362;2022-09-01T13:05:27;3.20;;;2.30;;
6671;SDS011;3372;48.690;12.362;2022-09-01T13:07:59;3.73;;;2.37;;
6671;SDS011;3372;48.690;12.362;2022-09-01T13:10:28;3.50;;;2.50;;
6671;SDS011;3372;48.690;12.362;2022-09-01T13:12:56;3.27;;;2.20;;
6671;SDS011;3372;48.690;12.362;2022-09-01T13:15:22;2.80;;;2.07;;
6671;SDS011;3372;48.690;12.362;2022-09-01T13:17:49;2.50;;;2.20;;
6671;SDS011;3372;48.690;12.362;2022-09-01T13:20:16;2.63;;;2.20;;
6671;SDS011;3372;48.690;12.362;2022-09-01T13:22:42;2.90;;;2.00;;
6671;SDS011;3372;48.690;12.362;2022-09-01T13:25:09;2.70;;;2.33;;
6671;SDS011;3372;48.690;12.362;2022-09-01T13:27:41;3.10;;;1.97;;
6671;SDS011;3372;48.690;12.362;2022-09-01T13:30:08;2.57;;;2.37;;
6671;SDS011;3372;48.690;12.362;2022-09-01T13:32:36;2.97;;;2.20;;
6671;SDS011;3372;48.690;12.362;2022-09-01T13:35:02;2.97;;;2.40;;
6671;SDS011;3372;48.690;12.362;2022-09-01T13:37:28;2.80;;;2.50;;
6671;SDS011;3372;48.690;12.362;2022-09-01T13:39:54;2.67;;;2.47;;
6671;SDS011;3372;48.690;12.362;2022-09-01T13:42:20;4.20;;;2.40;;
6671;SDS011;3372;48.690;12.362;2022-09-01T13:44:46;4.80;;;3.20;;
6671;SDS011;3372;48.690;12.362;2022-09-01T13:47:12;3.30;;;2.47;;
6671;SDS011;3372;48.690;12.362;2022-09-01T13:49:38;2.77;;;2.30;;
6671;SDS011;3372;48.690;12.362;2022-09-01T13:52:03;2.83;;;2.53;;
6671;SDS011;3372;48.690;12.362;2022-09-01T13:54:29;3.10;;;2.33;;
6671;SDS011;3372;48.690;12.362;2022-09-01T13:56:55;3.30;;;2.50;;
6671;SDS011;3372;48.690;12.362;2022-09-01T13:59:21;2.33;;;2.13;;
6671;SDS011;3372;48.690;12.362;2022-09-01T14:01:46;2.70;;;2.27;;
6671;SDS011;3372;48.690;12.362;2022-09-01T14:04:12;4.10;;;2.70;;
6671;SDS011;3372;48.690;12.362;2022-09-01T14:06:41;3.73;;;2.50;;
6671;SDS011;3372;48.690;12.362;2022-09-01T14:09:09;2.57;;;2.20;;
6671;SDS011;3372;48.690;12.362;2022-09-01T14:11:35;4.13;;;2.37;;
6671;SDS011;3372;48.690;12.362;2022-09-01T14:14:01;3.20;;;2.50;;
6671;SDS011;3372;48.690;12.362;2022-09-01T14:16:26;2.73;;;2.20;;
6671;SDS011;3372;48.690;12.362;2022-09-01T14:18:52;4.13;;;2.23;;
6671;SDS011;3372;48.690;12.362;2022-09-01T14:21:18;3.27;;;2.73;;
6671;SDS011;3372;48.690;12.362;2022-09-01T14:23:43;2.70;;;2.40;;
6671;SDS011;3372;48.690;12.362;2022-09-01T14:26:10;2.90;;;2.60;;
6671;SDS011;3372;48.690;12.362;2022-09-01T14:28:38;3.10;;;2.50;;
6671;SDS011;3372;48.690;12.362;2022-09-01T14:31:08;2.70;;;2.40;;
6671;SDS011;3372;48.690;12.362;2022-09-01T14:33:36;2.77;;;2.40;;
6671;SDS011;3372;48.690;12.362;2022-09-01T14:36:02;3.47;;;2.83;;
6671;SDS011;3372;48.690;12.362;2022-09-01T14:38:29;2.57;;;2.37;;
6671;SDS011;3372;48.690;12.362;2022-09-01T14:40:55;3.50;;;2.47;;
6671;SDS011;3372;48.690;12.362;2022-09-01T14:43:21;2.70;;;2.40;;
6671;SDS011;3372;48.690;12.362;2022-09-01T14:45:47;3.07;;;2.37;;
6671;SDS011;3372;48.690;12.362;2022-09-01T14:48:16;3.50;;;2.70;;
6671;SDS011;3372;48.690;12.362;2022-09-01T14:50:46;3.43;;;2.63;;
6671;SDS011;3372;48.690;12.362;2022-09-01T14:53:12;3.00;;;2.63;;
6671;SDS011;3372;48.690;12.362;2022-09-01T14:55:38;3.00;;;2.70;;
6671;SDS011;3372;48.690;12.362;2022-09-01T14:58:04;2.90;;;2.47;;
6671;SDS011;3372;48.690;12.362;2022-09-01T15:00:30;5.53;;;3.10;;
6671;SDS011;3372;48.690;12.362;2022-09-01T15:02:59;3.33;;;2.50;;
6671;SDS011;3372;48.690;12.362;2022-09-01T15:05:25;2.93;;;2.60;;
6671;SDS011;3372;48.690;12.362;2022-09-01T15:07:51;3.77;;;2.70;;
6671;SDS011;3372;48.690;12.362;2022-09-01T15:10:19;2.70;;;2.50;;
6671;SDS011;3372;48.690;12.362;2022-09-01T15:12:47;2.63;;;2.43;;
6671;SDS011;3372;48.690;12.362;2022-09-01T15:15:14;3.70;;;2.50;;
6671;SDS011;3372;48.690;12.362;2022-09-01T15:17:40;3.50;;;2.40;;
6671;SDS011;3372;48.690;12.362;2022-09-01T15:20:07;2.80;;;2.50;;
6671;SDS011;3372;48.690;12.362;2022-09-01T15:22:52;3.70;;;2.20;;
6671;SDS011;3372;48.690;12.362;2022-09-01T15:25:17;4.10;;;2.40;;
6671;SDS011;3372;48.690;12.362;2022-09-01T15:27:43;3.87;;;2.43;;
6671;SDS011;3372;48.690;12.362;2022-09-01T15:30:09;4.27;;;2.60;;
6671;SDS011;3372;48.690;12.362;2022-09-01T15:32:45;2.60;;;2.40;;
6671;SDS011;3372;48.690;12.362;2022-09-01T15:35:11;4.07;;;2.90;;
6671;SDS011;3372;48.690;12.362;2022-09-01T15:37:38;3.90;;;2.40;;
6671;SDS011;3372;48.690;12.362;2022-09-01T15:40:05;3.53;;;2.43;;
6671;SDS011;3372;48.690;12.362;2022-09-01T15:42:34;3.03;;;2.53;;
6671;SDS011;3372;48.690;12.362;2022-09-01T15:45:01;3.60;;;2.53;;
6671;SDS011;3372;48.690;12.362;2022-09-01T15:47:30;2.97;;;2.50;;
6671;SDS011;3372;48.690;12.362;2022-09-01T15:49:56;2.93;;;2.60;;
6671;SDS011;3372;48.690;12.362;2022-09-01T15:52:21;2.77;;;2.50;;
6671;SDS011;3372;48.690;12.362;2022-09-01T15:54:47;3.27;;;2.50;;
6671;SDS011;3372;48.690;12.362;2022-09-01T15:57:13;4.40;;;2.70;;
6671;SDS011;3372;48.690;12.362;2022-09-01T15:59:38;2.90;;;2.70;;
6671;SDS011;3372;48.690;12.362;2022-09-01T16:02:05;2.53;;;2.30;;
6671;SDS011;3372;48.690;12.362;2022-09-01T16:04:31;3.10;;;2.80;;
6671;SDS011;3372;48.690;12.362;2022-09-01T16:06:58;2.67;;;2.20;;
6671;SDS011;3372;48.690;12.362;2022-09-01T16:09:23;2.80;;;2.40;;
6671;SDS011;3372;48.690;12.362;2022-09-01T16:11:50;3.13;;;2.60;;
6671;SDS011;3372;48.690;12.362;2022-09-01T16:14:16;3.10;;;2.50;;